• Join FlightAware (Why Join?)
  • Login
  • US Flag 
10:21PM EDT


 

Airport Tracker/Info


-or-


 

Live Flight TrackerFlight Track Log ✈ EJA829P ✈ 03-Nov-2013 ✈ KSFO - KBFI

Flight Track Log - Related Links

Times and Time Zones

All times are in EST time to prevent confusion due to time zone crossing. See the EJA829P flight status page for this flight to view local times or setup timezone preferences in your user account.

Time Position Orientation Groundspeed Altitude Reporting Facility
EST Latitude Longitude Course Direction KTS MPH feet Rate Location/Type
10:51AM 37.6500 -122.4167 28° Northeast 206 237 1,700  Level Northern Cal TRACON
10:52AM 37.7000 -122.3833 28° Northeast 219 252 3,700 2,280 Climbing Northern Cal TRACON
10:53AM 37.7500 -122.3667 15° North 237 273 6,300 2,880 Climbing Northern Cal TRACON
10:56AM 37.9292 -122.3564 North 284 327 13,800 2,880 Climbing Oakland Center
10:57AM 38.0367 -122.3492 North 325 374 16,500 2,460 Climbing Oakland Center
10:58AM 38.1272 -122.3442 North 328 377 18,800 2,280 Climbing Oakland Center
10:59AM 38.2197 -122.3392 North 333 383 21,200 2,220 Climbing Oakland Center
11:00AM 38.3128 -122.3339 North 334 384 23,400 1,860 Climbing Oakland Center
11:01AM 38.4097 -122.3286 North 345 397 25,100 1,680 Climbing Oakland Center
11:02AM 38.5083 -122.3308 359° North 351 404 26,900 1,740 Climbing Oakland Center
11:03AM 38.6061 -122.3344 358° North 353 406 28,700 1,680 Climbing Oakland Center
11:04AM 38.7133 -122.3372 359° North 354 407 30,400 1,560 Climbing Oakland Center
11:05AM 38.8125 -122.3411 358° North 355 409 31,900 1,440 Climbing Oakland Center
11:06AM 38.9103 -122.3442 359° North 352 405 33,400 1,440 Climbing Oakland Center
11:07AM 39.0072 -122.3467 359° North 349 402 34,900 1,320 Climbing Oakland Center
11:08AM 39.1033 -122.3494 359° North 346 398 36,100 1,020 Climbing Oakland Center
11:09AM 39.2025 -122.3531 358° North 352 405 37,000 840 Climbing Oakland Center
11:10AM 39.3014 -122.3564 359° North 354 407 37,900 840 Climbing Oakland Center
11:11AM 39.3997 -122.3600 358° North 353 406 38,800 840 Climbing Oakland Center
11:12AM 39.5053 -122.3644 358° North 351 404 39,600 540 Climbing Oakland Center
11:13AM 39.6056 -122.3667 359° North 358 412 40,000 180 Climbing Oakland Center
11:14AM 39.7097 -122.3711 358° North 372 428 40,000  Level Oakland Center
11:15AM 39.8183 -122.3747 359° North 386 444 40,000  Level Oakland Center
11:16AM 39.9286 -122.3786 358° North 395 455 40,000  Level Oakland Center
11:17AM 40.0394 -122.3836 358° North 395 455 40,000  Level Oakland Center
11:18AM 40.1525 -122.3883 358° North 394 453 40,000  Level Oakland Center
11:19AM 40.2647 -122.3872 360° North 392 451 40,000  Level Oakland Center
11:20AM 40.3739 -122.3933 358° North 391 450 40,000  Level Oakland Center
11:21AM 40.4811 -122.3964 359° North 387 445 40,000  Level Oakland Center
11:22AM 40.5900 -122.3986 359° North 390 449 40,000  Level Oakland Center
11:23AM 40.6964 -122.4028 358° North 383 441 40,000  Level Oakland Center
11:24AM 40.8028 -122.4044 359° North 382 440 40,000  Level Oakland Center
11:25AM 40.9086 -122.4086 358° North 380 437 40,000  Level Oakland Center
11:26AM 41.0139 -122.4117 359° North 379 436 40,000  Level Oakland Center
11:27AM 41.1192 -122.4192 357° North 379 436 40,000  Level Oakland Center
11:28AM 41.2239 -122.4236 358° North 377 434 40,000  Level Oakland Center
11:29AM 41.3289 -122.4269 359° North 376 433 40,000  Level Oakland Center
11:30AM 41.4133 -122.4308 358° North 379 436 40,000  Level Seattle Center
11:31AM 41.5097 -122.4342 359° North 382 440 40,000  Level Seattle Center
11:32AM 41.6172 -122.4378 359° North 385 443 40,000  Level Seattle Center
11:33AM 41.7461 -122.4408 359° North 386 444 40,000  Level Seattle Center
11:34AM 41.8533 -122.4456 358° North 384 442 40,000  Level Seattle Center
11:35AM 41.9617 -122.4483 359° North 388 447 40,000  Level Seattle Center
11:36AM 42.0692 -122.4519 359° North 384 442 40,000  Level Seattle Center
11:37AM 42.1767 -122.4544 359° North 388 447 40,000  Level Seattle Center
11:38AM 42.2864 -122.4575 359° North 390 449 40,000  Level Seattle Center
11:39AM 42.3944 -122.4625 358° North 386 444 40,000  Level Seattle Center
11:40AM 42.5028 -122.4647 359° North 387 445 40,000  Level Seattle Center
11:41AM 42.6119 -122.4703 358° North 389 448 40,000  Level Seattle Center
11:42AM 42.7194 -122.4733 359° North 385 443 40,000  Level Seattle Center
11:43AM 42.8244 -122.4778 358° North 384 442 40,000  Level Seattle Center
11:44AM 42.9328 -122.4806 359° North 385 443 40,000  Level Seattle Center
11:45AM 43.0403 -122.4853 358° North 386 444 40,000  Level Seattle Center
11:48AM 43.2878 -122.4670 North  Level FlightAware Approximate
11:51AM 43.6883 -122.5103 359° North 388 447 40,000  Level Seattle Center
11:52AM 43.7969 -122.5158 358° North 391 450 40,000  Level Seattle Center
11:53AM 43.9075 -122.5189 359° North 397 457 40,000  Level Seattle Center
11:54AM 44.0153 -122.5231 358° North 392 451 40,000  Level Seattle Center
11:55AM 43.9781 -122.4637 359° North  Level FlightAware Approximate
11:55AM 44.1458 -122.5283 358° North 392 451 40,000  Level Seattle Center
11:56AM 44.0766 -122.4667 359° North  Level FlightAware Approximate
11:56AM 44.2542 -122.5331 358° North 391 450 40,000  Level Seattle Center
11:57AM 44.1751 -122.4696 359° North  Level FlightAware Approximate
11:57AM 44.3622 -122.5367 359° North 391 450 40,000  Level Seattle Center
11:58AM 44.2735 -122.4726 359° North  Level FlightAware Approximate
11:58AM 44.4708 -122.5414 358° North 392 451 40,000  Level Seattle Center
11:59AM 44.3720 -122.4756 359° North  Level FlightAware Approximate
11:59AM 44.5800 -122.5450 359° North 393 452 40,000  Level Seattle Center
12:00PM 44.4704 -122.4786 359° North  Level FlightAware Approximate
12:00PM 44.6892 -122.5503 358° North 394 453 40,000  Level Seattle Center
12:01PM 44.5689 -122.4816 359° North  Level FlightAware Approximate
12:01PM 44.7983 -122.5542 359° North 393 452 40,000  Level Seattle Center
12:02PM 44.9122 -122.5589 358° North 391 450 40,000  Level Seattle Center
12:03PM 45.0214 -122.5633 358° North 393 452 40,000  Level Seattle Center
12:04PM 45.1308 -122.5681 358° North 395 455 40,000  Level Seattle Center
12:05PM 45.2408 -122.5717 359° North 397 457 40,000  Level Seattle Center
12:06PM 45.3508 -122.5775 358° North 397 457 40,000  Level Seattle Center
12:07PM 45.4597 -122.5817 358° North 395 455 40,000  Level Seattle Center
12:08PM 45.5681 -122.5839 359° North 393 452 40,000  Level Seattle Center
12:09PM 45.6761 -122.5878 359° North 392 451 40,000  Level Seattle Center
12:10PM 45.7839 -122.6000 355° North 390 449 40,000 -420 Level Seattle Center
12:11PM 45.8903 -122.6261 350° North 390 449 39,200 -1,560 Descending Seattle Center
12:12PM 46.0122 -122.6575 350° North 369 425 36,900 -2,100 Descending Seattle Center
12:13PM 46.1086 -122.6811 350° North 355 409 35,000 -1,920 Descending Seattle Center
12:14PM 46.2072 -122.7061 350° North 368 423 33,100 -1,920 Descending Seattle Center
12:15PM 46.3053 -122.7325 349° North 359 413 31,200 -1,860 Descending Seattle Center
12:16PM 46.3964 -122.7550 350° North 337 388 29,400 -1,740 Descending Seattle Center
12:17PM 46.4897 -122.7803 349° North 339 390 27,700 -1,800 Descending Seattle Center
12:18PM 46.5836 -122.8053 350° North 341 392 25,800 -1,860 Descending Seattle Center
12:19PM 46.6781 -122.8281 351° North 343 395 24,000 -1,800 Descending Seattle Center
12:20PM 46.7722 -122.8511 350° North 343 395 22,200 -1,980 Descending Seattle Center
12:21PM 46.8131 -122.8622 349° North 338 389 21,400 -2,100 Descending Seattle Center
12:21PM 46.8747 -122.8781 350° North 330 380 20,100 -1,740 Descending Seattle Center
12:22PM 46.9461 -122.8981 349° North 310 357 18,800 -1,320 Descending Seattle Center
12:22PM 46.9472 -122.8967 40° Northeast 313 360 18,800 -1,680 Level Seattle Center
12:23PM 47.0272 -122.8319 29° Northeast 325 374 17,000 -1,920 Descending Seattle Center
12:23PM 47.0322 -122.8228 51° Northeast 330 380 16,900 -1,800 Descending Seattle Center
12:24PM 47.0894 -122.7531 40° Northeast 324 373 15,400 -1,920 Descending Seattle Center
12:24PM 47.1044 -122.7317 44° Northeast 320 368 15,000 -1,740 Descending Seattle Center
12:25PM 47.1717 -122.6469 41° Northeast 320 368 13,300 -1,680 Descending Seattle Center
12:25PM 47.1722 -122.6456 60° Northeast 323 372 13,300 -1,800 Level Seattle Center
12:26PM 47.2350 -122.5644 41° Northeast 304 350 11,500 -1,860 Descending Seattle Center
12:27PM 47.2822 -122.5053 40° Northeast 290 334 10,000 -1,800 Descending Seattle Center
12:28PM 47.2961 -122.4864 43° Northeast 293 337 9,700 -1,800 Descending Seattle Center
12:28PM 47.3506 -122.4583 19° North 277 319 8,200 -1,680 Descending Seattle Center
12:29PM 47.3683 -122.4542 North 280 322 8,000 -600 Descending Seattle Center
12:30PM 47.4444 -122.4536 360° North 274 315 7,500 -1,260 Descending Seattle Center
12:30PM 47.5133 -122.4608 356° North 268 308 5,700 -1,920 Descending Seattle Center
12:31PM 47.5186 -122.4603 North 266 306 5,600 -2,220 Descending Seattle Center
12:31PM 47.5706 -122.4950 336° Northwest 242 278 3,700 -2,340 Descending Seattle Center
12:32PM 47.5825 -122.5056 329° Northwest 244 281 3,300 -1,500 Descending Seattle Center
12:32PM 47.6261 -122.5303 339° North 214 246 2,200 -1,140 Descending Seattle Center
12:33PM 47.6378 -122.5300 North 211 243 2,200  Level Seattle Center
12:33PM 47.6667 -122.4881 44° Northeast 196 226 2,200  Level Seattle Center
12:34PM 47.6739 -122.4722 56° Northeast 195 224 2,200  Level Seattle Center
12:34PM 47.6644 -122.4172 104° East 178 205 2,200  Level Seattle Center
12:35PM 47.6539 -122.4083 150° Southeast 183 211 2,200 -240 Level Seattle Center
12:35PM 47.6256 -122.3858 152° Southeast 143 165 2,000 -300 Descending Seattle Center
12:36PM 47.6186 -122.3794 148° Southeast 146 168 1,900 -720 Descending Seattle Center
12:36PM 47.5964 -122.3592 148° Southeast 121 139 1,300 -840 Descending Seattle Center
12:37PM 47.5869 -122.3511 150° Southeast 126 145 1,100 -660 Descending Seattle Center
12:38PM 47.5597 -122.3289 151° Southeast 111 128 500 5,340 Descending Seattle Center
12:39PM 47.5389 -122.3106 149° Southeast 109 125 12,000 11,280 Climbing Seattle Center